Time;durP1;ratioP1;P1;durP2;ratioP2;P2;SDS_P1;SDS_P2;PMS_P1;PMS_P2;Temp;Humidity;BMP_temperature;BMP_pressure;BME280_temperature;BME280_humidity;BME280_pressure;Samples;Min_cycle;Max_cycle;Signal;HPM_P1;HPM_P2
2022/02/19 00:01:26;;;;;;;15.53;10.82;;;8.10;89.70;;;;;;1943137;74;21146;-56
2022/02/19 00:03:56;;;;;;;21.33;12.88;;;8.00;89.50;;;;;;1943035;74;21155;-56
2022/02/19 00:06:26;;;;;;;21.73;13.35;;;7.90;89.50;;;;;;1943178;74;21015;-57
2022/02/19 00:08:55;;;;;;;21.95;12.78;;;7.80;90.10;;;;;;1943040;74;21098;-57
2022/02/19 00:11:25;;;;;;;20.85;12.45;;;7.80;89.70;;;;;;1938170;74;21110;-57
2022/02/19 00:13:55;;;;;;;23.57;14.25;;;7.70;89.70;;;;;;1936212;74;21055;-57
2022/02/19 00:16:25;;;;;;;21.65;12.80;;;7.70;90.10;;;;;;1936293;74;20995;-57
2022/02/19 00:18:54;;;;;;;25.05;15.43;;;7.60;90.00;;;;;;1936278;74;21087;-56
2022/02/19 00:21:24;;;;;;;23.50;15.30;;;7.60;90.00;;;;;;1936173;73;21019;-57
2022/02/19 00:23:53;;;;;;;22.10;13.20;;;7.50;89.80;;;;;;1936408;74;21120;-57
2022/02/19 00:26:22;;;;;;;25.05;15.75;;;7.50;90.10;;;;;;1936265;74;21126;-57
2022/02/19 00:28:52;;;;;;;27.32;15.25;;;7.50;90.00;;;;;;1936409;74;21082;-56
2022/02/19 00:31:22;;;;;;;29.98;18.12;;;7.40;90.10;;;;;;1936252;74;21019;-56
2022/02/19 00:33:53;;;;;;;26.20;15.13;;;7.40;90.10;;;;;;1936425;74;21148;-57
2022/02/19 00:36:22;;;;;;;19.37;12.20;;;7.40;90.10;;;;;;1936560;74;21046;-57
2022/02/19 00:38:52;;;;;;;23.95;14.85;;;7.40;90.20;;;;;;1936530;74;21041;-57
2022/02/19 00:41:21;;;;;;;26.73;17.45;;;7.40;90.10;;;;;;1936409;74;21023;-57
2022/02/19 00:43:51;;;;;;;28.30;16.35;;;7.40;90.10;;;;;;1936302;74;21019;-57
2022/02/19 00:46:20;;;;;;;28.23;15.65;;;7.40;90.20;;;;;;1936274;74;21024;-57
2022/02/19 00:48:50;;;;;;;34.38;17.62;;;7.30;90.10;;;;;;1936320;73;21160;-57
2022/02/19 00:51:19;;;;;;;29.50;16.17;;;7.40;90.00;;;;;;1936232;74;21079;-57
2022/02/19 00:53:48;;;;;;;22.75;13.18;;;7.40;90.20;;;;;;1936344;74;21140;-57
2022/02/19 00:56:17;;;;;;;32.08;16.82;;;7.40;90.10;;;;;;1936250;74;21096;-57
2022/02/19 00:58:47;;;;;;;40.75;19.45;;;7.30;90.10;;;;;;1936330;74;21023;-57
2022/02/19 01:01:16;;;;;;;23.50;14.33;;;7.30;90.00;;;;;;1936294;74;21043;-56
2022/02/19 01:03:54;;;;;;;34.30;18.50;;;7.30;90.20;;;;;;1934716;74;21119;-56
2022/02/19 01:06:23;;;;;;;30.95;18.23;;;7.20;90.20;;;;;;1936282;74;21058;-56
2022/02/19 01:08:53;;;;;;;24.63;14.38;;;7.20;90.20;;;;;;1936268;74;21136;-57
2022/02/19 01:11:24;;;;;;;35.10;18.80;;;7.10;90.20;;;;;;1939742;74;21192;-56
2022/02/19 01:13:54;;;;;;;28.25;17.05;;;7.10;90.40;;;;;;1946097;74;21007;-55
2022/02/19 01:16:23;;;;;;;36.38;18.50;;;7.10;90.30;;;;;;1946191;73;21223;-56
2022/02/19 01:18:53;;;;;;;32.65;16.42;;;7.10;90.30;;;;;;1946251;74;21042;-56
2022/02/19 01:21:22;;;;;;;32.28;17.40;;;7.10;90.30;;;;;;1946030;74;21078;-56
2022/02/19 01:23:52;;;;;;;32.78;18.35;;;7.00;90.30;;;;;;1946096;74;21126;-56
2022/02/19 01:26:21;;;;;;;27.73;15.10;;;7.00;90.20;;;;;;1946085;74;20994;-55
2022/02/19 01:28:52;;;;;;;29.00;16.32;;;7.00;90.30;;;;;;1945543;74;21163;-55
2022/02/19 01:31:24;;;;;;;31.82;16.45;;;7.00;90.30;;;;;;1945540;74;21197;-56
2022/02/19 01:33:54;;;;;;;28.07;16.37;;;7.00;90.30;;;;;;1946163;74;21172;-56
2022/02/19 01:36:24;;;;;;;29.90;15.80;;;7.00;90.30;;;;;;1946206;74;21175;-56
2022/02/19 01:38:54;;;;;;;29.40;15.58;;;7.00;90.20;;;;;;1946093;74;21026;-56
2022/02/19 01:41:23;;;;;;;28.50;16.07;;;7.00;90.10;;;;;;1946061;74;21058;-55
2022/02/19 01:43:52;;;;;;;27.58;15.83;;;7.00;90.20;;;;;;1946269;74;21030;-56
2022/02/19 01:46:22;;;;;;;27.48;15.55;;;7.00;90.30;;;;;;1946137;74;21038;-56
2022/02/19 01:48:52;;;;;;;22.93;12.53;;;7.00;90.30;;;;;;1946157;73;21010;-56
2022/02/19 01:51:22;;;;;;;29.85;16.70;;;7.00;90.20;;;;;;1946072;74;21074;-55
2022/02/19 01:53:52;;;;;;;32.90;16.02;;;7.00;90.20;;;;;;1946194;74;21019;-55
2022/02/19 01:56:30;;;;;;;28.50;13.48;;;7.00;90.20;;;;;;1942762;74;21054;-56
2022/02/19 01:59:16;;;;;;;26.55;15.50;;;7.00;90.10;;;;;;1943005;74;21141;-55
2022/02/19 02:01:53;;;;;;;27.35;15.53;;;7.00;90.20;;;;;;1942278;74;21122;-55
2022/02/19 02:04:36;;;;;;;27.73;14.60;;;7.00;90.20;;;;;;1943419;74;21079;-56
2022/02/19 02:07:06;;;;;;;24.02;14.23;;;6.90;90.10;;;;;;1946064;73;21026;-55
2022/02/19 02:09:36;;;;;;;20.85;12.20;;;6.90;90.10;;;;;;1946232;74;21022;-55
2022/02/19 02:12:07;;;;;;;24.15;14.05;;;7.00;90.10;;;;;;1946115;73;21062;-55
2022/02/19 02:14:42;;;;;;;23.77;14.53;;;6.90;90.10;;;;;;1945910;73;21063;-56
2022/02/19 02:17:14;;;;;;;20.43;12.70;;;6.90;90.00;;;;;;1944033;74;21106;-56
2022/02/19 02:19:43;;;;;;;24.18;14.10;;;6.90;90.00;;;;;;1946016;74;21152;-56
2022/02/19 02:22:16;;;;;;;26.23;12.28;;;6.90;89.90;;;;;;1944939;74;21585;-56
2022/02/19 02:24:47;;;;;;;19.27;11.10;;;6.90;90.00;;;;;;1946157;73;21023;-55
2022/02/19 02:27:18;;;;;;;20.72;10.58;;;6.90;90.00;;;;;;1943597;74;21051;-56
2022/02/19 02:29:49;;;;;;;20.48;12.25;;;6.80;90.00;;;;;;1945988;74;20995;-55
2022/02/19 02:32:20;;;;;;;15.03;10.70;;;6.80;90.00;;;;;;1944685;74;21209;-55
2022/02/19 02:34:51;;;;;;;25.80;13.75;;;6.80;90.10;;;;;;1946169;74;21039;-56
2022/02/19 02:37:21;;;;;;;17.32;10.43;;;6.70;90.30;;;;;;1946176;73;21018;-55
2022/02/19 02:39:51;;;;;;;24.35;12.18;;;6.70;90.00;;;;;;1946038;74;21019;-55
2022/02/19 02:42:22;;;;;;;19.00;10.03;;;6.70;89.80;;;;;;1945905;73;21071;-56
2022/02/19 02:44:52;;;;;;;21.57;10.90;;;6.60;89.80;;;;;;1946262;74;21100;-55
2022/02/19 02:47:21;;;;;;;17.07;11.15;;;6.60;89.90;;;;;;1946134;73;21113;-55
2022/02/19 02:49:51;;;;;;;22.27;11.43;;;6.60;89.80;;;;;;1946167;74;21022;-55
2022/02/19 02:52:20;;;;;;;15.43;8.80;;;6.60;89.40;;;;;;1946043;74;21023;-56
2022/02/19 02:54:50;;;;;;;18.45;11.53;;;6.50;89.10;;;;;;1946028;74;21056;-55
2022/02/19 02:57:19;;;;;;;23.73;11.30;;;6.50;89.30;;;;;;1946163;74;21018;-55
2022/02/19 02:59:49;;;;;;;16.10;10.05;;;6.50;89.20;;;;;;1946108;73;21018;-55
2022/02/19 03:02:18;;;;;;;16.87;10.23;;;6.50;89.10;;;;;;1946126;74;21088;-56
2022/02/19 03:04:48;;;;;;;15.28;9.23;;;6.40;88.90;;;;;;1946147;73;21027;-55
2022/02/19 03:07:17;;;;;;;15.80;10.08;;;6.40;88.90;;;;;;1946063;74;21042;-55
2022/02/19 03:09:47;;;;;;;18.35;10.40;;;6.40;88.90;;;;;;1946004;74;21022;-55
2022/02/19 03:12:16;;;;;;;19.77;10.53;;;6.40;89.10;;;;;;1946031;74;21128;-55
2022/02/19 03:14:46;;;;;;;13.50;9.30;;;6.40;89.10;;;;;;1946056;74;21070;-55
2022/02/19 03:17:15;;;;;;;17.52;10.25;;;6.40;88.90;;;;;;1946147;74;21093;-55
2022/02/19 03:19:45;;;;;;;14.43;8.78;;;6.40;88.80;;;;;;1946023;73;21058;-55
2022/02/19 03:22:14;;;;;;;15.65;8.38;;;6.40;88.80;;;;;;1946213;74;21152;-55
2022/02/19 03:24:44;;;;;;;15.68;8.48;;;6.40;88.90;;;;;;1912000;74;21062;-55
2022/02/19 03:27:13;;;;;;;16.30;8.98;;;6.40;88.70;;;;;;1946195;74;21113;-56
2022/02/19 03:29:42;;;;;;;6.87;4.90;;;6.30;88.90;;;;;;1945977;73;21066;-56
2022/02/19 03:32:12;;;;;;;18.00;9.88;;;6.30;88.90;;;;;;1946012;74;21019;-56
2022/02/19 03:34:41;;;;;;;16.00;8.20;;;6.30;88.80;;;;;;1946033;73;21085;-55
2022/02/19 03:37:11;;;;;;;13.58;8.08;;;6.30;89.20;;;;;;1946234;74;21019;-55
2022/02/19 03:39:41;;;;;;;13.55;8.68;;;6.30;89.10;;;;;;1945993;74;21607;-56
2022/02/19 03:42:10;;;;;;;12.90;7.03;;;6.40;88.70;;;;;;1946019;74;21018;-55
2022/02/19 03:44:40;;;;;;;15.20;8.73;;;6.30;88.50;;;;;;1946004;74;21039;-55
2022/02/19 03:47:11;;;;;;;13.53;8.68;;;6.30;88.40;;;;;;1944791;74;21156;-56
2022/02/19 03:49:45;;;;;;;14.50;9.43;;;6.30;88.70;;;;;;1945057;74;21076;-56
2022/02/19 03:52:15;;;;;;;10.65;7.45;;;6.40;88.80;;;;;;1946048;74;21070;-55
2022/02/19 03:54:45;;;;;;;15.98;8.38;;;6.40;88.70;;;;;;1945996;74;21147;-55
2022/02/19 03:57:15;;;;;;;14.23;8.68;;;6.40;88.60;;;;;;1945950;73;21082;-55
2022/02/19 03:59:44;;;;;;;18.65;10.70;;;6.30;88.70;;;;;;1946152;74;20995;-56
2022/02/19 04:02:14;;;;;;;16.65;8.55;;;6.40;88.50;;;;;;1946112;74;21022;-55
2022/02/19 04:04:43;;;;;;;15.53;8.90;;;6.30;88.50;;;;;;1945997;74;21034;-55
2022/02/19 04:07:13;;;;;;;14.95;9.73;;;6.30;88.20;;;;;;1946025;73;21132;-56
2022/02/19 04:09:52;;;;;;;13.13;8.58;;;6.30;88.40;;;;;;1944903;73;21074;-55
2022/02/19 04:12:22;;;;;;;15.78;8.68;;;6.30;88.10;;;;;;1945712;73;21125;-56
2022/02/19 04:14:53;;;;;;;16.35;9.28;;;6.30;88.40;;;;;;1935981;74;21079;-55
2022/02/19 04:17:24;;;;;;;19.02;8.85;;;6.30;88.40;;;;;;1936267;74;21023;-56
2022/02/19 04:19:53;;;;;;;16.75;8.70;;;6.30;88.50;;;;;;1936164;74;21087;-55
2022/02/19 04:22:24;;;;;;;16.07;9.23;;;6.30;88.40;;;;;;1936237;74;21515;-55
2022/02/19 04:24:53;;;;;;;20.62;9.33;;;6.30;88.30;;;;;;1936165;74;21020;-55
2022/02/19 04:27:25;;;;;;;12.80;8.68;;;6.40;88.70;;;;;;1935803;74;21483;-55
2022/02/19 04:29:54;;;;;;;14.83;8.55;;;6.40;88.60;;;;;;1936132;74;20999;-55
2022/02/19 04:32:26;;;;;;;15.32;9.08;;;6.50;88.90;;;;;;1936115;73;21046;-55
2022/02/19 04:35:02;;;;;;;13.18;8.50;;;6.50;88.60;;;;;;1936093;74;21031;-55
2022/02/19 04:37:33;;;;;;;17.60;9.05;;;6.60;88.70;;;;;;1935604;74;21055;-55
2022/02/19 04:40:04;;;;;;;15.90;8.28;;;6.70;88.80;;;;;;1936171;74;21031;-56
2022/02/19 04:42:35;;;;;;;15.78;10.10;;;6.80;88.90;;;;;;1935961;74;21208;-57
2022/02/19 04:45:06;;;;;;;15.50;9.00;;;6.90;89.00;;;;;;1935057;74;21152;-57
2022/02/19 04:47:37;;;;;;;16.70;9.05;;;7.00;88.90;;;;;;1935667;74;21044;-57
2022/02/19 04:50:08;;;;;;;18.48;9.23;;;7.10;88.80;;;;;;1936192;73;21015;-57
2022/02/19 04:52:38;;;;;;;15.60;9.20;;;7.20;88.80;;;;;;1936107;74;21051;-57
2022/02/19 04:55:09;;;;;;;14.10;8.30;;;7.20;88.80;;;;;;1936181;74;21015;-57
2022/02/19 04:57:43;;;;;;;21.87;9.15;;;7.30;89.20;;;;;;1936164;74;21101;-58
2022/02/19 05:00:11;;;;;;;14.35;9.15;;;7.30;88.60;;;;;;1935830;74;21467;-57
2022/02/19 05:02:42;;;;;;;26.07;9.68;;;7.30;88.60;;;;;;1932318;74;21043;-57
2022/02/19 05:05:11;;;;;;;16.67;9.28;;;7.30;88.70;;;;;;1936111;74;21092;-58
2022/02/19 05:07:42;;;;;;;17.73;9.38;;;7.30;88.60;;;;;;1912533;74;21442;-57
2022/02/19 05:10:12;;;;;;;13.13;8.48;;;7.30;88.70;;;;;;1936259;74;21015;-57
2022/02/19 05:12:43;;;;;;;11.97;7.05;;;7.30;88.70;;;;;;1936243;74;21100;-57
2022/02/19 05:15:15;;;;;;;12.25;8.28;;;7.40;88.90;;;;;;1936346;74;21575;-57
2022/02/19 05:17:51;;;;;;;13.48;8.00;;;7.40;88.80;;;;;;1935298;74;21127;-57
2022/02/19 05:20:24;;;;;;;15.35;8.65;;;7.40;88.80;;;;;;1935912;74;21097;-57
2022/02/19 05:22:55;;;;;;;15.93;8.33;;;7.40;88.90;;;;;;1936356;74;21039;-57
2022/02/19 05:25:26;;;;;;;14.33;8.45;;;7.40;88.80;;;;;;1935699;74;21095;-57
2022/02/19 05:27:56;;;;;;;10.60;7.08;;;7.40;88.80;;;;;;1936320;74;21265;-57
2022/02/19 05:30:26;;;;;;;19.35;8.73;;;7.40;88.60;;;;;;1912639;74;21066;-57
2022/02/19 05:33:04;;;;;;;14.95;8.30;;;7.30;88.90;;;;;;1932606;74;21051;-57
2022/02/19 05:35:34;;;;;;;13.40;8.75;;;7.30;88.80;;;;;;1935992;74;21030;-57
2022/02/19 05:38:04;;;;;;;15.80;7.60;;;7.30;88.80;;;;;;1936387;74;21035;-57
2022/02/19 05:40:34;;;;;;;14.83;7.70;;;7.20;88.40;;;;;;1936288;74;21028;-57
2022/02/19 05:43:05;;;;;;;14.13;7.70;;;7.20;88.60;;;;;;1935857;74;21031;-57
2022/02/19 05:45:35;;;;;;;11.83;8.33;;;7.20;89.50;;;;;;1936227;73;21081;-57
2022/02/19 05:48:05;;;;;;;17.25;8.98;;;7.20;89.20;;;;;;1936176;74;21093;-57
2022/02/19 05:50:43;;;;;;;10.93;6.53;;;7.30;89.30;;;;;;1919260;74;21125;-57
2022/02/19 05:53:14;;;;;;;9.53;7.28;;;7.30;88.60;;;;;;1934333;74;21063;-57
2022/02/19 05:55:45;;;;;;;11.93;7.30;;;7.30;88.30;;;;;;1935906;74;21022;-57
2022/02/19 05:58:14;;;;;;;12.15;7.90;;;7.20;88.30;;;;;;1936216;74;21023;-57
2022/02/19 06:00:48;;;;;;;11.68;7.20;;;7.20;88.10;;;;;;1935187;74;21071;-57
2022/02/19 06:03:18;;;;;;;11.12;5.78;;;7.10;87.50;;;;;;1936287;74;21020;-57
2022/02/19 06:05:48;;;;;;;10.65;6.42;;;7.10;86.20;;;;;;1936217;73;21036;-57
2022/02/19 06:08:18;;;;;;;11.05;6.83;;;7.00;85.80;;;;;;1936318;73;21087;-57
2022/02/19 06:10:47;;;;;;;11.57;7.03;;;6.90;86.00;;;;;;1936179;74;21071;-57
2022/02/19 06:13:17;;;;;;;9.25;6.58;;;6.90;86.30;;;;;;1936360;74;21521;-57
2022/02/19 06:15:48;;;;;;;12.63;6.12;;;6.80;86.30;;;;;;1941871;74;21075;-57
2022/02/19 06:18:19;;;;;;;7.87;5.58;;;6.80;86.30;;;;;;1942033;74;21051;-57
2022/02/19 06:20:49;;;;;;;10.10;6.05;;;6.80;84.60;;;;;;1943059;74;21011;-57
2022/02/19 06:23:20;;;;;;;12.75;6.92;;;6.70;85.70;;;;;;1941483;73;21140;-57
2022/02/19 06:25:50;;;;;;;9.88;6.50;;;6.70;85.70;;;;;;1943083;73;21018;-57
2022/02/19 06:28:21;;;;;;;9.75;6.37;;;6.70;85.70;;;;;;1942843;74;21059;-57
2022/02/19 06:30:50;;;;;;;13.48;6.03;;;6.70;85.20;;;;;;1943153;74;21092;-57
2022/02/19 06:33:21;;;;;;;8.45;6.22;;;6.70;85.20;;;;;;1942767;74;21079;-57
2022/02/19 06:35:52;;;;;;;9.10;6.35;;;6.70;84.60;;;;;;1942815;73;21089;-57
2022/02/19 06:38:23;;;;;;;7.70;4.92;;;6.70;85.20;;;;;;1942499;74;21141;-57
2022/02/19 06:40:54;;;;;;;7.67;5.97;;;6.70;83.60;;;;;;1942197;74;21067;-57
2022/02/19 06:43:24;;;;;;;8.38;5.78;;;6.70;84.90;;;;;;1943191;74;21145;-56
2022/02/19 06:45:54;;;;;;;6.10;4.72;;;6.80;85.20;;;;;;1943078;74;21018;-57
2022/02/19 06:48:25;;;;;;;8.33;5.67;;;6.80;84.50;;;;;;1943053;74;20999;-57
2022/02/19 06:50:56;;;;;;;10.82;6.30;;;6.80;84.80;;;;;;1942959;73;21092;-57
2022/02/19 06:53:26;;;;;;;6.42;5.22;;;6.80;84.50;;;;;;1943025;74;21454;-57
2022/02/19 06:55:56;;;;;;;8.75;5.60;;;6.80;84.60;;;;;;1943110;74;21082;-57
2022/02/19 06:58:26;;;;;;;8.60;5.70;;;6.90;84.20;;;;;;1943214;74;21023;-57
2022/02/19 07:00:57;;;;;;;12.70;7.53;;;6.90;84.50;;;;;;1942162;74;21613;-57
2022/02/19 07:03:27;;;;;;;9.85;7.58;;;6.90;84.30;;;;;;1943169;73;21143;-57
2022/02/19 07:05:57;;;;;;;12.95;8.38;;;7.00;84.60;;;;;;1941381;74;21090;-57
2022/02/19 07:08:40;;;;;;;10.18;7.67;;;7.10;85.10;;;;;;1942783;73;21158;-56
2022/02/19 07:11:10;;;;;;;13.75;8.53;;;7.10;85.20;;;;;;1942941;74;21108;-56
2022/02/19 07:13:40;;;;;;;13.38;8.53;;;7.30;85.10;;;;;;1943015;74;21047;-56
2022/02/19 07:16:09;;;;;;;9.45;6.37;;;7.30;85.00;;;;;;1943085;74;21120;-56
2022/02/19 07:18:43;;;;;;;11.20;6.97;;;7.40;85.10;;;;;;1942007;74;21067;-56
2022/02/19 07:21:14;;;;;;;13.15;7.92;;;7.40;84.40;;;;;;1942232;74;21027;-56
2022/02/19 07:23:44;;;;;;;8.78;5.65;;;7.50;84.50;;;;;;1942942;74;21019;-56
2022/02/19 07:26:14;;;;;;;10.63;6.03;;;7.50;84.00;;;;;;1943189;74;21023;-56
2022/02/19 07:28:46;;;;;;;8.80;5.62;;;7.50;83.20;;;;;;1943002;74;21116;-56
2022/02/19 07:31:15;;;;;;;7.33;5.03;;;7.60;84.20;;;;;;1942967;74;21027;-56
2022/02/19 07:33:44;;;;;;;8.53;4.47;;;7.60;84.10;;;;;;1942960;74;21113;-56
2022/02/19 07:36:15;;;;;;;6.30;3.87;;;7.60;83.40;;;;;;1941939;74;21144;-56
2022/02/19 07:38:44;;;;;;;5.70;3.92;;;7.70;81.70;;;;;;1943040;74;21015;-56
2022/02/19 07:41:14;;;;;;;8.80;3.90;;;7.70;81.60;;;;;;1943053;74;21019;-56
2022/02/19 07:43:45;;;;;;;5.92;4.50;;;7.70;81.80;;;;;;1938327;74;21083;-56
2022/02/19 07:46:22;;;;;;;6.30;3.90;;;7.80;80.60;;;;;;1925146;74;21144;-56
2022/02/19 07:48:53;;;;;;;7.65;4.75;;;7.80;82.50;;;;;;1938022;74;21071;-56
2022/02/19 07:59:47;;;;;;;6.87;4.75;;;7.90;77.80;;;;;;1925362;74;21156;-56
2022/02/19 08:02:17;;;;;;;6.22;4.45;;;7.90;80.30;;;;;;1942879;74;21030;-52
2022/02/19 08:04:46;;;;;;;5.45;3.20;;;8.00;80.90;;;;;;1943061;74;21082;-49
2022/02/19 08:07:16;;;;;;;4.42;3.20;;;8.10;77.90;;;;;;1942590;74;21057;-47
2022/02/19 08:09:45;;;;;;;8.15;3.83;;;8.10;79.40;;;;;;1941561;74;21098;-52
2022/02/19 08:12:14;;;;;;;7.10;3.22;;;8.10;78.90;;;;;;1930427;74;21099;-52
2022/02/19 08:14:44;;;;;;;7.00;3.98;;;8.10;76.30;;;;;;1917712;74;21043;-51
2022/02/19 08:17:13;;;;;;;4.25;3.47;;;8.10;77.60;;;;;;1922564;74;21028;-49
2022/02/19 08:19:43;;;;;;;6.85;3.25;;;8.10;76.40;;;;;;1922890;74;21032;-54
2022/02/19 08:22:12;;;;;;;3.22;2.22;;;8.10;76.80;;;;;;1922847;74;21023;-51
2022/02/19 08:24:42;;;;;;;4.45;2.00;;;8.10;74.50;;;;;;1922743;74;21024;-53
2022/02/19 08:27:12;;;;;;;4.80;2.58;;;8.10;74.30;;;;;;1922823;74;21032;-49
2022/02/19 08:29:41;;;;;;;3.65;2.40;;;8.10;75.80;;;;;;1922701;74;21000;-51
2022/02/19 08:32:11;;;;;;;9.18;2.60;;;8.20;76.80;;;;;;1922674;74;21063;-48
2022/02/19 08:34:40;;;;;;;4.80;2.60;;;8.20;77.70;;;;;;1922687;74;21008;-47
2022/02/19 08:37:09;;;;;;;2.70;2.33;;;8.30;76.70;;;;;;1922785;74;21113;-50
2022/02/19 08:39:39;;;;;;;4.25;2.55;;;8.40;75.80;;;;;;1922794;74;21107;-52
2022/02/19 08:42:09;;;;;;;10.10;3.55;;;8.40;74.80;;;;;;1923625;74;21095;-53
2022/02/19 08:44:38;;;;;;;6.90;4.03;;;8.40;76.10;;;;;;1923450;74;21150;-53
2022/02/19 08:47:07;;;;;;;4.47;2.80;;;8.50;76.90;;;;;;1922512;74;21071;-52
2022/02/19 08:49:36;;;;;;;6.67;3.30;;;8.50;77.70;;;;;;1922984;74;20984;-53
2022/02/19 08:52:06;;;;;;;5.20;3.52;;;8.60;75.70;;;;;;1923607;74;21101;-53
2022/02/19 08:54:36;;;;;;;4.87;2.62;;;8.60;75.00;;;;;;1923678;74;21031;-53
2022/02/19 08:57:05;;;;;;;6.78;3.25;;;8.70;74.60;;;;;;1923719;74;21040;-53
2022/02/19 08:59:35;;;;;;;4.42;2.95;;;8.70;72.80;;;;;;1923730;74;21032;-53
2022/02/19 09:02:04;;;;;;;3.42;2.45;;;8.70;75.20;;;;;;1923799;74;21129;-53
2022/02/19 09:04:34;;;;;;;4.20;2.58;;;8.70;73.50;;;;;;1923675;74;21064;-53
2022/02/19 09:07:03;;;;;;;2.95;2.12;;;8.70;71.20;;;;;;1923771;74;21122;-52
2022/02/19 09:09:36;;;;;;;3.72;2.50;;;8.70;70.70;;;;;;1923679;74;21071;-53
2022/02/19 09:12:07;;;;;;;3.25;2.05;;;8.70;73.40;;;;;;1923716;74;21016;-54
2022/02/19 09:14:36;;;;;;;2.67;1.60;;;8.70;71.40;;;;;;1923666;74;21027;-54
2022/02/19 09:17:06;;;;;;;3.15;2.20;;;8.70;69.50;;;;;;1908488;74;21041;-54
2022/02/19 09:19:35;;;;;;;2.92;1.92;;;8.70;71.40;;;;;;1902174;75;21012;-53
2022/02/19 09:22:05;;;;;;;5.08;2.75;;;8.80;71.30;;;;;;1902062;75;21103;-53
2022/02/19 09:24:35;;;;;;;5.25;3.52;;;8.70;71.10;;;;;;1902018;75;21009;-54
2022/02/19 09:27:05;;;;;;;4.05;3.08;;;8.80;70.20;;;;;;1902110;75;21028;-53
2022/02/19 09:29:34;;;;;;;4.30;2.67;;;8.80;71.50;;;;;;1902093;75;21033;-52
2022/02/19 09:32:04;;;;;;;7.37;3.55;;;8.80;72.10;;;;;;1902106;75;21130;-55
2022/02/19 09:34:34;;;;;;;4.22;2.62;;;8.80;73.30;;;;;;1902188;75;21052;-52
2022/02/19 09:37:03;;;;;;;5.85;3.22;;;8.90;72.60;;;;;;1902085;75;21037;-54
2022/02/19 09:39:33;;;;;;;8.78;4.55;;;8.90;71.60;;;;;;1902117;75;21024;-54
2022/02/19 09:42:03;;;;;;;7.00;2.80;;;8.90;72.10;;;;;;1902166;75;21024;-53
2022/02/19 09:44:33;;;;;;;3.60;2.60;;;9.00;70.60;;;;;;1902209;75;21118;-52
2022/02/19 09:47:03;;;;;;;5.97;2.50;;;9.00;70.60;;;;;;1902197;75;21218;-53
2022/02/19 09:49:32;;;;;;;4.70;2.85;;;9.00;69.70;;;;;;1901999;75;21114;-53
2022/02/19 09:52:02;;;;;;;6.28;2.83;;;9.00;68.00;;;;;;1902027;75;21203;-52
2022/02/19 09:54:31;;;;;;;3.85;2.10;;;9.00;70.40;;;;;;1902012;75;21021;-53
2022/02/19 09:57:00;;;;;;;1.82;1.37;;;9.00;70.10;;;;;;1902063;75;21005;-52
2022/02/19 09:59:30;;;;;;;3.02;2.37;;;9.00;67.40;;;;;;1902083;75;21101;-51
2022/02/19 10:02:06;;;;;;;3.70;2.10;;;9.10;70.30;;;;;;1902028;75;21048;-52
2022/02/19 10:04:36;;;;;;;4.70;1.60;;;9.10;70.30;;;;;;1902094;75;21040;-53
2022/02/19 10:07:17;;;;;;;5.05;2.55;;;9.20;69.00;;;;;;1902193;75;21052;-53
2022/02/19 10:09:47;;;;;;;5.28;2.40;;;9.20;70.50;;;;;;1902182;75;21491;-53
2022/02/19 10:12:17;;;;;;;4.03;2.50;;;9.30;70.00;;;;;;1901940;75;21033;-54
2022/02/19 10:14:47;;;;;;;4.37;1.75;;;9.30;70.70;;;;;;1902000;75;21040;-53
2022/02/19 10:17:18;;;;;;;7.05;3.20;;;9.40;69.30;;;;;;1902005;75;21064;-54
2022/02/19 10:19:56;;;;;;;7.47;3.25;;;9.40;67.50;;;;;;1902183;75;21545;-53
2022/02/19 10:22:30;;;;;;;2.95;1.47;;;9.40;68.20;;;;;;1902143;75;21106;-53
2022/02/19 10:25:05;;;;;;;4.17;1.65;;;9.50;65.60;;;;;;1902177;75;21076;-53
2022/02/19 10:27:57;;;;;;;6.30;2.05;;;9.50;64.30;;;;;;1902330;75;21000;-53
2022/02/19 10:30:27;;;;;;;3.27;1.65;;;9.50;65.50;;;;;;1902204;75;21017;-53
2022/02/19 10:32:58;;;;;;;1.37;1.12;;;9.50;66.10;;;;;;1902071;75;21029;-52
2022/02/19 10:35:40;;;;;;;5.00;1.80;;;9.60;63.50;;;;;;1902196;75;21122;-51
2022/02/19 10:38:15;;;;;;;4.97;1.65;;;9.50;63.90;;;;;;1902065;75;21169;-52
2022/02/19 10:40:56;;;;;;;4.87;1.50;;;9.50;64.90;;;;;;1902285;75;21169;-52
2022/02/19 10:43:32;;;;;;;1.90;1.70;;;9.50;64.80;;;;;;1902085;75;21048;-52
2022/02/19 10:46:03;;;;;;;1.65;1.17;;;9.60;65.20;;;;;;1902116;75;21118;-51
2022/02/19 10:48:37;;;;;;;2.58;1.20;;;9.60;65.80;;;;;;1902207;75;21118;-52
2022/02/19 10:51:18;;;;;;;3.50;1.40;;;9.60;63.50;;;;;;1902069;75;21036;-53
2022/02/19 10:54:02;;;;;;;3.35;1.70;;;9.70;64.60;;;;;;1902040;75;21024;-50
2022/02/19 10:56:34;;;;;;;1.95;1.35;;;9.70;64.20;;;;;;1902443;75;21048;-52
2022/02/19 10:59:08;;;;;;;2.40;1.47;;;9.70;61.70;;;;;;1902242;75;21172;-52
2022/02/19 11:01:42;;;;;;;4.10;2.30;;;9.80;62.00;;;;;;1901083;75;21040;-52
2022/02/19 11:04:13;;;;;;;5.08;2.75;;;9.70;62.50;;;;;;1902122;75;21102;-51
2022/02/19 11:06:43;;;;;;;4.22;2.52;;;9.70;63.60;;;;;;1902119;75;21113;-53
2022/02/19 11:09:14;;;;;;;8.23;4.05;;;9.70;63.80;;;;;;1902136;75;21119;-53
2022/02/19 11:11:45;;;;;;;10.68;4.87;;;9.80;65.00;;;;;;1902105;75;21106;-53
2022/02/19 11:14:16;;;;;;;5.28;2.00;;;9.80;65.90;;;;;;1902116;75;21032;-52
2022/02/19 11:16:46;;;;;;;3.22;1.80;;;9.90;65.20;;;;;;1901967;74;21122;-54
2022/02/19 11:19:16;;;;;;;5.33;1.95;;;9.90;64.30;;;;;;1902118;75;21463;-53
2022/02/19 11:21:46;;;;;;;12.50;2.75;;;9.90;65.80;;;;;;1901977;75;21106;-53
2022/02/19 11:24:17;;;;;;;9.23;3.12;;;10.00;64.30;;;;;;1901973;75;21102;-52
2022/02/19 11:26:48;;;;;;;6.85;2.87;;;10.00;64.70;;;;;;1902155;75;21017;-52
2022/02/19 11:29:20;;;;;;;4.17;2.22;;;10.10;65.10;;;;;;1902055;75;21072;-51
2022/02/19 11:31:51;;;;;;;3.00;1.80;;;10.10;64.70;;;;;;1901917;75;21016;-53
2022/02/19 11:34:24;;;;;;;3.45;2.08;;;10.10;65.00;;;;;;1902149;75;21040;-50
2022/02/19 11:36:55;;;;;;;4.22;1.75;;;10.10;65.30;;;;;;1901987;75;21033;-52
2022/02/19 11:39:24;;;;;;;1.85;1.75;;;10.10;66.00;;;;;;1899006;75;21032;-54
2022/02/19 11:41:54;;;;;;;2.75;2.05;;;10.10;64.90;;;;;;1902158;75;21044;-53
2022/02/19 11:44:26;;;;;;;2.17;1.82;;;10.20;64.60;;;;;;1902104;75;21040;-54
2022/02/19 11:46:56;;;;;;;3.70;2.37;;;10.20;64.10;;;;;;1902060;75;21483;-54
2022/02/19 11:49:27;;;;;;;2.58;1.80;;;10.20;64.00;;;;;;1902056;75;21033;-53
2022/02/19 11:52:08;;;;;;;2.85;1.77;;;10.20;64.30;;;;;;1902051;75;21119;-53
2022/02/19 11:54:38;;;;;;;2.77;1.92;;;10.20;64.40;;;;;;1902061;75;21048;-52
2022/02/19 11:57:15;;;;;;;2.33;2.02;;;10.20;65.00;;;;;;1902071;75;21114;-52
2022/02/19 11:59:46;;;;;;;3.92;2.08;;;10.20;64.60;;;;;;1902035;75;21009;-53
2022/02/19 12:02:23;;;;;;;1.95;1.62;;;10.20;64.20;;;;;;1902213;75;21033;-50
2022/02/19 12:05:18;;;;;;;4.85;2.12;;;10.20;63.10;;;;;;1901979;75;21036;-52
2022/02/19 12:08:03;;;;;;;2.70;1.90;;;10.20;62.60;;;;;;1901984;75;21040;-53
2022/02/19 12:10:37;;;;;;;3.58;2.02;;;10.30;63.70;;;;;;1902176;75;21038;-53
2022/02/19 12:13:15;;;;;;;4.30;2.42;;;10.30;63.50;;;;;;1901516;75;21076;-53
2022/02/19 12:15:45;;;;;;;2.00;1.85;;;10.30;63.00;;;;;;1902087;75;21114;-53
2022/02/19 12:18:16;;;;;;;3.25;1.85;;;10.30;64.00;;;;;;1901966;75;21122;-54
2022/02/19 12:20:45;;;;;;;5.17;2.42;;;10.30;63.10;;;;;;1902268;75;21040;-53
2022/02/19 12:23:15;;;;;;;2.90;2.00;;;10.30;63.40;;;;;;1902103;75;21110;-53
2022/02/19 12:26:03;;;;;;;3.80;2.22;;;10.30;62.90;;;;;;1902128;75;21009;-54
2022/02/19 12:28:33;;;;;;;4.65;2.22;;;10.30;63.40;;;;;;1902151;75;21475;-52
2022/02/19 12:31:17;;;;;;;5.30;2.35;;;10.20;62.70;;;;;;1902149;75;21036;-53
2022/02/19 12:33:47;;;;;;;4.72;2.37;;;10.10;62.80;;;;;;1902118;75;21025;-53
2022/02/19 12:36:17;;;;;;;3.25;2.00;;;10.20;64.10;;;;;;1902108;75;21110;-53
2022/02/19 12:38:49;;;;;;;1.52;1.37;;;10.20;63.20;;;;;;1902227;75;21107;-53
2022/02/19 12:41:19;;;;;;;3.08;2.05;;;10.20;62.70;;;;;;1902231;75;21048;-53
2022/02/19 12:44:09;;;;;;;3.80;2.00;;;10.20;61.60;;;;;;1902231;75;21130;-54
2022/02/19 12:46:40;;;;;;;4.78;2.62;;;10.20;63.40;;;;;;1902268;75;21126;-54
2022/02/19 12:49:10;;;;;;;2.60;2.05;;;10.20;62.20;;;;;;1902162;75;21033;-53
2022/02/19 12:51:39;;;;;;;4.55;2.60;;;10.20;63.80;;;;;;1902165;75;21000;-53
2022/02/19 12:54:09;;;;;;;2.40;1.80;;;10.30;63.30;;;;;;1902170;75;21057;-53
2022/02/19 12:56:42;;;;;;;5.83;2.10;;;10.30;63.20;;;;;;1902194;75;21093;-54
2022/02/19 12:59:12;;;;;;;3.05;1.85;;;10.30;63.50;;;;;;1902106;75;21028;-53
2022/02/19 13:01:43;;;;;;;5.97;2.92;;;10.30;63.20;;;;;;1902143;75;21037;-52
2022/02/19 13:04:13;;;;;;;3.22;2.00;;;10.30;64.00;;;;;;1902203;75;21550;-52
2022/02/19 13:06:47;;;;;;;9.45;5.15;;;10.40;63.30;;;;;;1899897;75;21423;-54
2022/02/19 13:09:22;;;;;;;7.65;3.40;;;10.30;63.80;;;;;;1902122;75;21110;-53
2022/02/19 13:11:54;;;;;;;4.62;2.50;;;10.30;63.20;;;;;;1902057;75;21044;-52
2022/02/19 13:14:28;;;;;;;3.33;1.98;;;10.30;64.00;;;;;;1902170;75;21087;-51
2022/02/19 13:17:00;;;;;;;2.10;1.87;;;10.30;62.90;;;;;;1902427;75;21126;-52